createdAt,value
2022-12-01T00:01:18.563Z,11.13
2022-12-01T00:03:24.378Z,10.07
2022-12-01T00:05:29.463Z,10.77
2022-12-01T00:07:34.889Z,10.88
2022-12-01T00:09:52.363Z,10.98
2022-12-01T00:14:05.798Z,10.57
2022-12-01T00:16:15.045Z,11.07
2022-12-01T00:18:20.432Z,11.75
2022-12-01T00:20:25.528Z,10.65
2022-12-01T00:22:30.545Z,11.63
2022-12-01T00:24:36.489Z,11.73
2022-12-01T00:26:42.065Z,11.20
2022-12-01T00:28:50.975Z,11.35
2022-12-01T00:31:00.177Z,11.35
2022-12-01T00:33:05.446Z,11.05
2022-12-01T00:35:11.736Z,11.80
2022-12-01T00:37:17.408Z,12.20
2022-12-01T00:39:23.152Z,11.90
2022-12-01T00:41:29.634Z,12.48
2022-12-01T00:43:34.861Z,12.73
2022-12-01T00:45:40.199Z,12.63
2022-12-01T00:47:47.836Z,12.50
2022-12-01T00:49:53.495Z,12.15
2022-12-01T00:51:58.681Z,12.57
2022-12-01T00:54:03.973Z,12.20
2022-12-01T00:56:09.780Z,12.98
2022-12-01T00:58:15.523Z,13.15
2022-12-01T01:00:22.057Z,12.23
2022-12-01T01:02:27.454Z,12.82
2022-12-01T01:04:37.103Z,12.60
2022-12-01T01:06:43.350Z,13.25
2022-12-01T01:08:49.253Z,12.77
2022-12-01T01:10:54.230Z,12.70
2022-12-01T01:12:59.843Z,13.05
2022-12-01T01:15:05.838Z,13.45
2022-12-01T01:17:10.833Z,12.45
2022-12-01T01:19:15.862Z,12.52
2022-12-01T01:21:24.838Z,13.13
2022-12-01T01:23:30.477Z,12.75
2022-12-01T01:25:36.327Z,11.30
2022-12-01T01:27:41.430Z,12.18
2022-12-01T01:29:46.709Z,13.27
2022-12-01T01:31:52.357Z,12.73
2022-12-01T01:33:59.180Z,13.90
2022-12-01T01:36:05.424Z,13.13
2022-12-01T01:38:13.169Z,12.98
2022-12-01T01:40:18.353Z,12.73
2022-12-01T01:42:24.302Z,13.70
2022-12-01T01:44:52.695Z,12.48
2022-12-01T01:46:58.625Z,11.98
2022-12-01T01:49:06.483Z,12.10
2022-12-01T01:51:13.463Z,13.02
2022-12-01T01:53:21.248Z,12.67
2022-12-01T01:57:35.622Z,13.23
2022-12-01T01:59:45.951Z,12.52
2022-12-01T02:02:07.541Z,13.43
2022-12-01T02:04:13.044Z,13.52
2022-12-01T02:06:18.496Z,13.25
2022-12-01T02:08:26.157Z,14.07
2022-12-01T02:10:52.371Z,15.93
2022-12-01T02:13:11.346Z,15.55
2022-12-01T02:15:33.201Z,16.70
2022-12-01T02:17:47.989Z,16.63
2022-12-01T02:20:41.262Z,17.13
2022-12-01T02:23:04.566Z,15.60
2022-12-01T02:25:24.244Z,15.57
2022-12-01T02:27:52.014Z,14.75
2022-12-01T02:30:12.434Z,14.85
2022-12-01T02:32:32.949Z,14.98
2022-12-01T02:34:47.524Z,14.82
2022-12-01T02:36:57.709Z,14.23
2022-12-01T02:39:10.733Z,13.95
2022-12-01T02:41:23.137Z,13.13
2022-12-01T02:43:35.264Z,14.32
2022-12-01T02:45:46.710Z,13.35
2022-12-01T02:47:59.297Z,13.00
2022-12-01T02:50:06.029Z,13.82
2022-12-01T02:52:13.217Z,13.55
2022-12-01T02:54:18.713Z,12.75
2022-12-01T02:56:26.052Z,13.00
2022-12-01T02:58:31.531Z,14.32
2022-12-01T03:00:36.635Z,12.95
2022-12-01T03:02:51.956Z,14.07
2022-12-01T03:05:08.321Z,14.15
2022-12-01T03:07:43.704Z,13.40
2022-12-01T03:10:03.012Z,14.02
2022-12-01T03:12:23.501Z,13.63
2022-12-01T03:14:41.938Z,15.30
2022-12-01T03:16:54.438Z,14.90
2022-12-01T03:19:03.813Z,14.15
2022-12-01T03:21:17.321Z,14.95
2022-12-01T03:23:27.834Z,13.63
2022-12-01T03:25:34.726Z,13.00
2022-12-01T03:28:13.498Z,15.38
2022-12-01T03:30:12.948Z,14.73
2022-12-01T03:34:38.549Z,13.68
2022-12-01T03:36:52.812Z,13.88
2022-12-01T03:39:05.051Z,12.80
2022-12-01T03:41:17.970Z,12.85
2022-12-01T03:43:27.413Z,14.23
2022-12-01T03:45:39.093Z,14.70
2022-12-01T03:47:44.640Z,13.98
2022-12-01T03:49:52.862Z,14.25
2022-12-01T03:52:18.489Z,13.90
2022-12-01T03:54:33.300Z,14.93
2022-12-01T03:56:47.972Z,14.27
2022-12-01T03:58:58.017Z,13.75
2022-12-01T04:01:05.096Z,13.23
2022-12-01T04:03:10.368Z,14.48
2022-12-01T04:05:18.079Z,14.52
2022-12-01T04:07:28.842Z,15.02
2022-12-01T04:09:34.258Z,16.02
2022-12-01T04:12:03.964Z,14.80
2022-12-01T04:14:08.994Z,15.10
2022-12-01T04:16:14.033Z,15.45
2022-12-01T04:18:19.176Z,13.90
2022-12-01T04:20:25.994Z,15.13
2022-12-01T04:22:33.579Z,14.68
2022-12-01T04:24:39.103Z,15.52
2022-12-01T04:26:46.089Z,13.52
2022-12-01T04:28:51.651Z,14.80
2022-12-01T04:30:56.898Z,14.50
2022-12-01T04:33:01.977Z,15.32
2022-12-01T04:35:07.773Z,15.73
2022-12-01T04:37:13.017Z,15.18
2022-12-01T04:39:20.774Z,15.05
2022-12-01T04:41:26.047Z,14.55
2022-12-01T04:43:31.069Z,14.60
2022-12-01T04:45:36.096Z,15.07
2022-12-01T04:47:41.086Z,15.50
2022-12-01T04:49:46.326Z,13.90
2022-12-01T04:51:51.793Z,16.23
2022-12-01T04:53:56.852Z,14.98
2022-12-01T04:56:06.026Z,15.15
2022-12-01T04:58:11.079Z,15.85
2022-12-01T05:00:18.274Z,15.65
2022-12-01T05:02:23.434Z,14.68
2022-12-01T05:04:28.543Z,15.65
2022-12-01T05:06:33.690Z,15.15
2022-12-01T05:08:38.808Z,14.95
2022-12-01T05:10:43.805Z,16.17
2022-12-01T05:12:51.634Z,16.27
2022-12-01T05:14:56.656Z,16.27
2022-12-01T05:17:02.788Z,17.17
2022-12-01T05:19:21.645Z,16.58
2022-12-01T05:21:27.106Z,15.90
2022-12-01T05:23:34.442Z,16.88
2022-12-01T05:25:39.970Z,16.10
2022-12-01T05:27:45.247Z,16.33
2022-12-01T05:29:52.855Z,17.10
2022-12-01T05:31:57.927Z,18.25
2022-12-01T05:34:03.404Z,15.95
2022-12-01T05:36:09.570Z,15.88
2022-12-01T05:38:15.279Z,15.02
2022-12-01T05:40:20.571Z,15.82
2022-12-01T05:42:25.628Z,15.57
2022-12-01T05:44:30.957Z,15.93
2022-12-01T05:46:38.843Z,15.77
2022-12-01T05:48:45.391Z,15.18
2022-12-01T05:50:50.895Z,14.30
2022-12-01T05:52:56.275Z,14.63
2022-12-01T05:55:03.149Z,13.85
2022-12-01T05:57:08.269Z,15.60
2022-12-01T05:59:13.309Z,15.95
2022-12-01T06:01:18.520Z,14.73
2022-12-01T06:03:26.264Z,15.93
2022-12-01T06:05:31.722Z,15.63
2022-12-01T06:07:40.153Z,16.13
2022-12-01T06:09:46.635Z,15.55
2022-12-01T06:11:52.728Z,15.43
2022-12-01T06:13:57.896Z,15.70
2022-12-01T06:16:05.304Z,16.77
2022-12-01T06:18:10.374Z,15.95
2022-12-01T06:20:18.263Z,16.13
2022-12-01T06:24:28.629Z,16.73
2022-12-01T06:26:34.468Z,16.92
2022-12-01T06:28:39.594Z,16.15
2022-12-01T06:30:44.657Z,14.65
2022-12-01T06:32:50.195Z,16.52
2022-12-01T06:34:55.279Z,16.95
2022-12-01T06:37:02.856Z,15.68
2022-12-01T06:39:11.480Z,16.45
2022-12-01T06:41:16.592Z,16.17
2022-12-01T06:43:21.943Z,16.42
2022-12-01T06:45:27.051Z,16.65
2022-12-01T06:47:32.986Z,15.77
2022-12-01T06:49:38.311Z,16.17
2022-12-01T06:51:43.638Z,17.55
2022-12-01T06:53:51.224Z,16.52
2022-12-01T06:55:56.397Z,16.08
2022-12-01T06:58:03.200Z,16.70
2022-12-01T07:00:11.299Z,17.48
2022-12-01T07:02:17.567Z,16.58
2022-12-01T07:04:22.761Z,15.52
2022-12-01T07:06:32.010Z,16.83
2022-12-01T07:08:37.476Z,16.02
2022-12-01T07:10:45.031Z,15.07
2022-12-01T07:12:52.928Z,17.23
2022-12-01T07:17:05.441Z,15.88
2022-12-01T07:19:11.300Z,15.25
2022-12-01T07:21:19.774Z,16.67
2022-12-01T07:23:25.229Z,16.13
2022-12-01T07:25:30.399Z,17.55
2022-12-01T07:27:38.353Z,16.95
2022-12-01T07:31:48.190Z,16.60
2022-12-01T07:33:53.213Z,16.42
2022-12-01T07:35:58.656Z,24.00
2022-12-01T07:38:03.648Z,18.45
2022-12-01T07:40:11.043Z,15.98
2022-12-01T07:42:16.142Z,16.67
2022-12-01T07:44:24.038Z,16.50
2022-12-01T07:46:31.588Z,16.88
2022-12-01T07:48:37.491Z,16.60
2022-12-01T07:50:42.494Z,16.55
2022-12-01T07:52:47.509Z,15.77
2022-12-01T07:54:53.266Z,16.27
2022-12-01T07:57:00.973Z,16.35
2022-12-01T07:59:05.982Z,16.33
2022-12-01T08:01:16.798Z,15.13
2022-12-01T08:03:22.134Z,16.13
2022-12-01T08:05:27.297Z,16.65
2022-12-01T08:07:32.409Z,16.63
2022-12-01T08:09:37.389Z,15.93
2022-12-01T08:11:44.503Z,15.63
2022-12-01T08:13:50.127Z,16.33
2022-12-01T08:15:55.276Z,15.90
2022-12-01T08:18:06.194Z,16.02
2022-12-01T08:20:12.962Z,15.73
2022-12-01T08:22:18.006Z,15.68
2022-12-01T08:24:23.088Z,16.55
2022-12-01T08:26:29.694Z,17.08
2022-12-01T08:28:36.315Z,16.50
2022-12-01T08:30:41.443Z,16.20
2022-12-01T08:32:46.561Z,15.05
2022-12-01T08:34:54.268Z,15.00
2022-12-01T08:36:59.264Z,14.43
2022-12-01T08:39:04.829Z,15.00
2022-12-01T08:41:11.660Z,15.75
2022-12-01T08:43:34.682Z,15.98
2022-12-01T08:45:43.425Z,16.17
2022-12-01T08:47:48.433Z,15.27
2022-12-01T08:49:56.159Z,15.00
2022-12-01T08:52:01.137Z,15.65
2022-12-01T08:54:06.967Z,15.70
2022-12-01T08:56:16.370Z,15.65
2022-12-01T08:58:23.930Z,14.70
2022-12-01T09:00:31.727Z,15.38
2022-12-01T09:02:36.800Z,15.05
2022-12-01T09:04:41.861Z,16.25
2022-12-01T09:06:51.647Z,15.65
2022-12-01T09:08:57.006Z,16.13
2022-12-01T09:11:02.766Z,15.23
2022-12-01T09:13:08.542Z,16.27
2022-12-01T09:15:17.466Z,15.20
2022-12-01T09:17:26.525Z,16.08
2022-12-01T09:19:31.772Z,15.65
2022-12-01T09:21:39.492Z,16.65
2022-12-01T09:23:47.495Z,16.73
2022-12-01T09:25:53.515Z,15.73
2022-12-01T09:27:58.536Z,17.13
2022-12-01T09:30:03.569Z,16.55
2022-12-01T09:32:09.002Z,16.48
2022-12-01T09:34:18.566Z,15.38
2022-12-01T09:36:23.595Z,15.48
2022-12-01T09:38:29.219Z,15.80
2022-12-01T09:40:40.237Z,15.88
2022-12-01T09:42:48.518Z,16.58
2022-12-01T09:45:00.937Z,15.77
2022-12-01T09:47:19.105Z,14.90
2022-12-01T09:49:47.501Z,15.13
2022-12-01T09:51:54.576Z,14.20
2022-12-01T09:54:03.006Z,14.80
2022-12-01T09:56:23.737Z,15.23
2022-12-01T09:58:32.457Z,16.83
2022-12-01T10:00:43.752Z,17.10
2022-12-01T10:02:56.518Z,16.88
2022-12-01T10:05:06.539Z,15.65
2022-12-01T10:07:23.081Z,18.40
2022-12-01T10:09:37.695Z,18.80
2022-12-01T10:11:48.627Z,18.45
2022-12-01T10:13:54.351Z,18.73
2022-12-01T10:16:08.882Z,19.73
2022-12-01T10:18:33.944Z,20.83
2022-12-01T10:20:47.004Z,19.70
2022-12-01T10:23:16.044Z,20.80
2022-12-01T10:25:26.126Z,20.10
2022-12-01T10:27:49.175Z,21.27
2022-12-01T10:30:07.024Z,22.50
2022-12-01T10:32:21.700Z,22.17
2022-12-01T10:34:30.134Z,21.42
2022-12-01T10:36:37.056Z,23.05
2022-12-01T10:38:42.657Z,21.52
2022-12-01T10:40:50.762Z,22.85
2022-12-01T10:45:06.252Z,22.55
2022-12-01T10:47:23.474Z,22.58
2022-12-01T10:49:41.577Z,23.13
2022-12-01T10:51:57.058Z,24.70
2022-12-01T10:54:11.731Z,24.08
2022-12-01T10:56:21.135Z,28.48
2022-12-01T10:58:29.760Z,26.50
2022-12-01T11:00:59.185Z,24.70
2022-12-01T11:03:06.525Z,25.05
2022-12-01T11:05:28.218Z,24.52
2022-12-01T11:07:37.080Z,23.48
2022-12-01T11:09:43.456Z,24.25
2022-12-01T11:11:49.684Z,23.73
2022-12-01T11:13:57.786Z,25.50
2022-12-01T11:16:06.278Z,25.42
2022-12-01T11:18:26.273Z,25.92
2022-12-01T11:20:36.433Z,25.23
2022-12-01T11:22:41.675Z,25.05
2022-12-01T11:24:58.619Z,26.05
2022-12-01T11:27:04.264Z,23.95
2022-12-01T11:29:36.063Z,23.65
2022-12-01T11:31:49.311Z,24.80
2022-12-01T11:33:58.004Z,24.98
2022-12-01T11:36:03.265Z,23.80
2022-12-01T11:40:41.416Z,25.13
2022-12-01T11:42:55.536Z,26.08
2022-12-01T11:45:11.731Z,23.25
2022-12-01T11:47:23.550Z,25.35
2022-12-01T11:49:32.873Z,24.98
2022-12-01T11:51:39.844Z,26.15
2022-12-01T11:53:46.451Z,26.17
2022-12-01T11:55:54.812Z,26.48
2022-12-01T11:58:04.617Z,25.25
2022-12-01T12:00:21.374Z,25.67
2022-12-01T12:02:38.392Z,25.97
2022-12-01T12:05:09.652Z,28.73
2022-12-01T12:07:27.963Z,27.67
2022-12-01T12:10:03.349Z,29.40
2022-12-01T12:12:29.325Z,25.35
2022-12-01T12:14:58.846Z,25.98
2022-12-01T12:17:43.687Z,25.88
2022-12-01T12:20:26.200Z,27.63
2022-12-01T12:22:44.772Z,29.52
2022-12-01T12:25:05.796Z,28.05
2022-12-01T12:27:21.737Z,27.90
2022-12-01T12:29:46.170Z,28.75
2022-12-01T12:32:08.889Z,28.23
2022-12-01T12:34:45.132Z,29.60
2022-12-01T12:37:03.608Z,29.98
2022-12-01T12:39:29.389Z,29.38
2022-12-01T12:41:41.685Z,28.77
2022-12-01T12:44:06.388Z,31.60
2022-12-01T12:46:15.007Z,30.38
2022-12-01T12:48:45.683Z,30.40
2022-12-01T12:51:14.837Z,29.83
2022-12-01T12:53:25.575Z,30.77
2022-12-01T12:55:36.495Z,30.70
2022-12-01T12:57:50.660Z,30.88
2022-12-01T13:00:01.833Z,33.53
2022-12-01T13:02:17.534Z,33.10
2022-12-01T13:09:52.399Z,27.90
2022-12-01T13:12:07.359Z,29.75
2022-12-01T13:14:23.426Z,31.58
2022-12-01T13:16:36.347Z,31.52
2022-12-01T13:18:47.865Z,29.70
2022-12-01T13:20:57.090Z,30.25
2022-12-01T13:23:06.065Z,31.85
2022-12-01T13:25:15.535Z,29.58
2022-12-01T13:27:25.578Z,29.60
2022-12-01T13:29:43.722Z,29.30
2022-12-01T13:31:53.783Z,31.10
2022-12-01T13:34:06.652Z,32.20
2022-12-01T13:36:44.972Z,29.48
2022-12-01T13:38:42.944Z,28.77
2022-12-01T13:40:49.185Z,29.33
2022-12-01T13:43:08.913Z,29.27
2022-12-01T13:45:22.360Z,28.63
2022-12-01T13:47:42.280Z,30.85
2022-12-01T13:49:52.716Z,29.70
2022-12-01T13:52:33.907Z,30.48
2022-12-01T13:54:41.807Z,29.08
2022-12-01T14:00:07.043Z,29.25
2022-12-01T14:02:22.569Z,29.73
2022-12-01T14:04:31.864Z,29.27
2022-12-01T14:06:46.786Z,30.65
2022-12-01T14:08:52.877Z,30.55
2022-12-01T14:11:03.357Z,30.17
2022-12-01T14:13:10.624Z,30.50
2022-12-01T14:15:43.171Z,29.33
2022-12-01T14:17:48.682Z,30.05
2022-12-01T14:19:55.560Z,30.55
2022-12-01T14:22:00.648Z,30.33
2022-12-01T14:24:09.529Z,31.38
2022-12-01T14:29:43.187Z,30.48
2022-12-01T14:32:27.944Z,30.90
2022-12-01T14:34:35.142Z,29.73
2022-12-01T14:36:44.867Z,28.50
2022-12-01T14:38:51.099Z,29.90
2022-12-01T14:40:56.909Z,27.40
2022-12-01T14:43:16.489Z,29.98
2022-12-01T14:45:30.716Z,28.58
2022-12-01T14:47:45.192Z,28.98
2022-12-01T14:50:01.033Z,28.10
2022-12-01T14:52:09.966Z,27.85
2022-12-01T14:54:25.091Z,28.20
2022-12-01T14:56:31.209Z,28.15
2022-12-01T14:58:36.172Z,27.83
2022-12-01T15:01:06.168Z,28.60
2022-12-01T15:03:15.858Z,27.83
2022-12-01T15:05:23.872Z,27.88
2022-12-01T15:07:29.188Z,30.13
2022-12-01T15:09:35.249Z,31.67
2022-12-01T15:11:52.175Z,28.98
2022-12-01T15:14:00.040Z,28.52
2022-12-01T15:16:17.298Z,28.35
2022-12-01T15:18:29.461Z,30.05
2022-12-01T15:20:41.319Z,28.15
2022-12-01T15:22:50.175Z,26.60
2022-12-01T15:24:55.185Z,27.88
2022-12-01T15:27:03.964Z,28.23
2022-12-01T15:29:19.188Z,29.30
2022-12-01T15:31:26.948Z,29.27
2022-12-01T15:35:47.115Z,27.83
2022-12-01T15:37:53.599Z,26.48
2022-12-01T15:40:54.172Z,29.77
2022-12-01T15:42:33.495Z,26.40
2022-12-01T15:44:39.542Z,27.45
2022-12-01T15:46:47.140Z,28.77
2022-12-01T15:49:08.476Z,29.48
2022-12-01T15:51:18.972Z,28.50
2022-12-01T15:53:29.414Z,29.05
2022-12-01T15:55:37.481Z,28.00
2022-12-01T15:57:42.548Z,27.73
2022-12-01T15:59:53.947Z,28.65
2022-12-01T16:02:02.126Z,27.15
2022-12-01T16:04:16.998Z,25.90
2022-12-01T16:06:24.415Z,25.58
2022-12-01T16:08:31.028Z,28.13
2022-12-01T16:10:39.393Z,30.83
2022-12-01T16:12:44.422Z,29.52
2022-12-01T16:14:56.720Z,27.50
2022-12-01T16:17:06.061Z,28.95
2022-12-01T16:19:32.125Z,25.65
2022-12-01T16:21:47.008Z,27.48
2022-12-01T16:24:00.099Z,27.45
2022-12-01T16:26:11.434Z,26.80
2022-12-01T16:28:25.946Z,28.55
2022-12-01T16:30:38.370Z,25.65
2022-12-01T16:32:49.346Z,28.13
2022-12-01T16:34:55.871Z,29.63
2022-12-01T16:37:00.890Z,28.38
2022-12-01T16:39:09.561Z,28.48
2022-12-01T16:41:20.192Z,29.08
2022-12-01T16:43:28.060Z,28.95
2022-12-01T16:45:33.056Z,28.67
2022-12-01T16:47:38.052Z,28.15
2022-12-01T16:49:45.659Z,29.73
2022-12-01T16:51:56.469Z,30.95
2022-12-01T16:54:03.931Z,31.00
2022-12-01T16:56:14.943Z,28.67
2022-12-01T16:58:19.968Z,28.33
2022-12-01T17:00:25.836Z,29.50
2022-12-01T17:02:30.912Z,30.17
2022-12-01T17:04:35.831Z,30.55
2022-12-01T17:06:43.392Z,30.55
2022-12-01T17:08:48.970Z,29.85
2022-12-01T17:10:55.241Z,29.27
2022-12-01T17:13:01.081Z,27.08
2022-12-01T17:15:06.660Z,30.35
2022-12-01T17:17:11.946Z,28.80
2022-12-01T17:19:19.188Z,29.27
2022-12-01T17:21:24.668Z,30.00
2022-12-01T17:23:33.033Z,27.65
2022-12-01T17:25:42.593Z,27.08
2022-12-01T17:27:47.604Z,28.98
2022-12-01T17:29:52.681Z,30.95
2022-12-01T17:31:58.635Z,28.38
2022-12-01T17:34:03.625Z,29.92
2022-12-01T17:36:14.156Z,28.17
2022-12-01T17:38:19.824Z,29.67
2022-12-01T17:40:27.396Z,28.60
2022-12-01T17:42:34.037Z,26.83
2022-12-01T17:44:39.175Z,30.08
2022-12-01T17:46:44.631Z,29.58
2022-12-01T17:48:51.147Z,28.63
2022-12-01T17:50:56.147Z,27.67
2022-12-01T17:53:01.382Z,28.02
2022-12-01T17:55:07.124Z,28.58
2022-12-01T17:57:14.734Z,28.00
2022-12-01T17:59:20.071Z,29.38
2022-12-01T18:01:30.011Z,27.35
2022-12-01T18:03:35.697Z,28.77
2022-12-01T18:05:41.888Z,28.75
2022-12-01T18:07:46.934Z,27.40
2022-12-01T18:09:52.172Z,26.80
2022-12-01T18:11:58.328Z,26.60
2022-12-01T18:14:06.133Z,25.63
2022-12-01T18:16:12.790Z,25.70
2022-12-01T18:18:18.072Z,27.08
2022-12-01T18:20:24.319Z,26.27
2022-12-01T18:22:29.490Z,25.10
2022-12-01T18:24:34.503Z,25.17
2022-12-01T18:26:42.817Z,25.90
2022-12-01T18:28:48.091Z,24.88
2022-12-01T18:30:55.901Z,25.50
2022-12-01T18:33:00.959Z,26.45
2022-12-01T18:35:06.432Z,25.55
2022-12-01T18:37:11.740Z,25.38
2022-12-01T18:39:17.038Z,23.98
2022-12-01T18:41:22.714Z,24.38
2022-12-01T18:43:28.272Z,24.50
2022-12-01T18:45:33.338Z,23.80
2022-12-01T18:47:41.372Z,24.65
2022-12-01T18:51:51.214Z,23.55
2022-12-01T18:53:57.454Z,23.33
2022-12-01T18:56:05.929Z,23.73
2022-12-01T18:58:11.083Z,23.65
2022-12-01T19:00:18.030Z,23.17
2022-12-01T19:02:23.436Z,23.70
2022-12-01T19:04:31.143Z,23.33
2022-12-01T19:06:37.522Z,21.77
2022-12-01T19:08:42.716Z,20.92
2022-12-01T19:10:47.914Z,21.48
2022-12-01T19:12:52.980Z,22.48
2022-12-01T19:14:58.256Z,21.40
2022-12-01T19:17:04.062Z,21.65
2022-12-01T19:19:09.722Z,21.13
2022-12-01T19:21:21.256Z,21.58
2022-12-01T19:23:27.637Z,21.50
2022-12-01T19:25:32.624Z,22.27
2022-12-01T19:27:37.909Z,22.10
2022-12-01T19:29:43.558Z,20.90
2022-12-01T19:31:48.833Z,22.15
2022-12-01T19:33:55.385Z,21.52
2022-12-01T19:36:08.407Z,22.33
2022-12-01T19:38:16.177Z,22.25
2022-12-01T19:40:21.736Z,20.65
2022-12-01T19:42:26.912Z,21.08
2022-12-01T19:44:31.944Z,21.23
2022-12-01T19:46:37.076Z,21.25
2022-12-01T19:48:44.348Z,20.75
2022-12-01T19:50:49.675Z,20.67
2022-12-01T19:52:54.692Z,22.52
2022-12-01T19:55:02.580Z,21.90
2022-12-01T19:57:07.922Z,22.70
2022-12-01T19:59:14.947Z,21.85
2022-12-01T20:01:21.644Z,23.48
2022-12-01T20:03:26.623Z,21.83
2022-12-01T20:05:31.701Z,22.17
2022-12-01T20:07:37.398Z,21.15
2022-12-01T20:09:48.415Z,22.90
2022-12-01T20:11:57.940Z,20.83
2022-12-01T20:14:04.221Z,21.73
2022-12-01T20:16:13.057Z,20.50
2022-12-01T20:18:18.084Z,22.17
2022-12-01T20:20:23.074Z,22.65
2022-12-01T20:22:28.080Z,19.90
2022-12-01T20:24:33.934Z,21.63
2022-12-01T20:26:43.302Z,20.17
2022-12-01T20:28:54.211Z,20.95
2022-12-01T20:30:59.506Z,21.50
2022-12-01T20:33:04.536Z,22.70
2022-12-01T20:35:10.533Z,21.65
2022-12-01T20:37:15.936Z,20.38
2022-12-01T20:39:21.322Z,21.63
2022-12-01T20:41:26.515Z,22.73
2022-12-01T20:43:31.523Z,21.80
2022-12-01T20:45:39.261Z,20.98
2022-12-01T20:47:44.677Z,19.75
2022-12-01T20:49:52.970Z,22.00
2022-12-01T20:52:00.787Z,22.80
2022-12-01T20:58:40.251Z,21.02
2022-12-01T21:00:47.986Z,20.63
2022-12-01T21:02:53.215Z,26.30
2022-12-01T21:04:59.385Z,22.48
2022-12-01T21:07:04.724Z,21.10
2022-12-01T21:09:09.779Z,22.40
2022-12-01T21:11:41.426Z,25.67
2022-12-01T21:13:43.945Z,20.52
2022-12-01T21:16:03.120Z,21.25
2022-12-01T21:18:17.633Z,21.77
2022-12-01T21:20:30.344Z,20.92
2022-12-01T21:22:36.969Z,19.50
2022-12-01T21:24:49.099Z,21.10
2022-12-01T21:27:01.956Z,23.00
2022-12-01T21:29:23.961Z,20.83
2022-12-01T21:31:31.582Z,22.63
2022-12-01T21:33:39.174Z,23.27
2022-12-01T21:35:44.234Z,28.33
2022-12-01T21:37:50.583Z,26.20
2022-12-01T21:39:59.212Z,22.30
2022-12-01T21:42:19.788Z,29.38
2022-12-01T21:44:29.410Z,20.63
2022-12-01T21:46:40.110Z,20.50
2022-12-01T21:48:46.399Z,24.08
2022-12-01T21:50:54.238Z,28.50
2022-12-01T21:55:35.798Z,20.70
2022-12-01T21:57:45.000Z,21.70
2022-12-01T21:59:51.491Z,20.70
2022-12-01T22:02:00.504Z,21.50
2022-12-01T22:04:15.850Z,22.20
2022-12-01T22:06:30.209Z,21.02
2022-12-01T22:08:39.098Z,21.52
2022-12-01T22:11:02.130Z,21.75
2022-12-01T22:13:12.308Z,20.55
2022-12-01T22:15:41.181Z,20.45
2022-12-01T22:17:48.770Z,21.20
2022-12-01T22:19:59.705Z,21.75
2022-12-01T22:22:23.541Z,20.88
2022-12-01T22:24:31.948Z,23.13
2022-12-01T22:26:43.513Z,20.98
2022-12-01T22:30:54.675Z,21.33
2022-12-01T22:33:03.735Z,21.10
2022-12-01T22:35:41.987Z,23.98
2022-12-01T22:37:49.278Z,22.23
2022-12-01T22:39:58.284Z,22.17
2022-12-01T22:42:10.439Z,22.23
2022-12-01T22:44:16.049Z,22.83
2022-12-01T22:46:41.416Z,23.92
2022-12-01T22:48:52.250Z,24.13
2022-12-01T22:50:57.970Z,23.20
2022-12-01T22:53:15.374Z,23.23
2022-12-01T22:55:23.197Z,23.92
2022-12-01T22:57:35.263Z,23.27
2022-12-01T22:59:44.008Z,22.75
2022-12-01T23:01:56.782Z,22.33
2022-12-01T23:04:23.664Z,22.40
2022-12-01T23:06:58.826Z,24.27
2022-12-01T23:09:04.507Z,20.60
2022-12-01T23:11:14.240Z,23.90
2022-12-01T23:13:24.069Z,24.88
2022-12-01T23:15:35.542Z,24.42
2022-12-01T23:17:41.451Z,22.15
2022-12-01T23:19:49.826Z,21.25
2022-12-01T23:21:56.095Z,23.35
2022-12-01T23:24:01.127Z,24.58
2022-12-01T23:26:09.888Z,24.05
2022-12-01T23:28:16.238Z,23.85
2022-12-01T23:30:23.885Z,23.92
2022-12-01T23:32:29.359Z,22.40
2022-12-01T23:34:34.386Z,23.55
2022-12-01T23:36:42.502Z,21.70
2022-12-01T23:38:49.862Z,22.52
2022-12-01T23:40:58.723Z,23.08
2022-12-01T23:43:15.150Z,22.50
2022-12-01T23:45:25.332Z,22.52
2022-12-01T23:47:32.928Z,23.25
2022-12-01T23:49:38.736Z,20.70
2022-12-01T23:51:50.961Z,21.33
2022-12-01T23:53:58.321Z,22.52
2022-12-01T23:56:08.964Z,21.08
2022-12-01T23:58:17.960Z,21.80
